Time;durP1;ratioP1;P1;durP2;ratioP2;P2;SDS_P1;SDS_P2;PMS_P1;PMS_P2;Temp;Humidity;BMP_temperature;BMP_pressure;BME280_temperature;BME280_humidity;BME280_pressure;Samples;Min_cycle;Max_cycle;Signal;HPM_P1;HPM_P2
2023/09/26 00:02:22;;;;;;;7.65;6.53;;;14.60;99.90;;;;;;5065262;28;20049;-83
2023/09/26 00:04:48;;;;;;;12.75;7.55;;;14.60;99.90;;;;;;5041785;28;20058;-84
2023/09/26 00:07:14;;;;;;;8.70;6.95;;;14.60;99.90;;;;;;5055478;28;20078;-83
2023/09/26 00:09:40;;;;;;;15.07;8.07;;;14.50;99.90;;;;;;5042185;28;20044;-83
2023/09/26 00:12:05;;;;;;;9.85;8.45;;;14.50;99.90;;;;;;5072012;28;20787;-83
2023/09/26 00:14:31;;;;;;;10.35;8.10;;;14.60;99.90;;;;;;5071230;28;20615;-83
2023/09/26 00:16:58;;;;;;;12.40;8.50;;;14.50;99.90;;;;;;5071512;28;20131;-83
2023/09/26 00:19:23;;;;;;;9.93;8.50;;;13.20;99.90;;;;;;5055992;28;20044;-83
2023/09/26 00:21:50;;;;;;;12.23;9.10;;;14.50;99.90;;;;;;5054439;28;20422;-83
2023/09/26 00:24:15;;;;;;;12.93;9.15;;;14.40;99.90;;;;;;5044862;28;20493;-83
2023/09/26 00:26:42;;;;;;;11.90;8.85;;;14.50;99.90;;;;;;5056407;28;20048;-82
2023/09/26 00:29:09;;;;;;;12.65;9.80;;;14.40;99.90;;;;;;5073192;28;20487;-83
2023/09/26 00:31:35;;;;;;;11.05;8.93;;;14.40;99.90;;;;;;5090527;28;20045;-83
2023/09/26 00:34:00;;;;;;;10.68;9.10;;;17.10;99.90;;;;;;5056171;28;20405;-83
2023/09/26 00:36:26;;;;;;;12.32;8.93;;;14.30;99.90;;;;;;5074306;28;20040;-83
2023/09/26 00:38:52;;;;;;;10.93;8.73;;;14.30;99.90;;;;;;5056951;28;20036;-83
2023/09/26 00:41:17;;;;;;;10.13;8.93;;;14.30;99.90;;;;;;5056738;28;20734;-82
2023/09/26 00:43:46;;;;;;;14.10;10.75;;;14.20;99.90;;;;;;5071799;28;20048;-83
2023/09/26 00:46:12;;;;;;;11.60;9.55;;;14.30;99.90;;;;;;5055953;28;20571;-83
2023/09/26 00:48:39;;;;;;;12.95;9.40;;;14.30;99.90;;;;;;5056020;28;20044;-83
2023/09/26 00:51:06;;;;;;;13.90;9.77;;;14.20;99.90;;;;;;5051467;28;20048;-83
2023/09/26 00:53:34;;;;;;;12.55;9.70;;;14.20;99.90;;;;;;5055881;28;20052;-83
2023/09/26 00:56:00;;;;;;;10.57;9.10;;;14.20;99.90;;;;;;5052943;28;20087;-83
2023/09/26 00:58:26;;;;;;;13.13;9.75;;;14.20;99.90;;;;;;5063418;28;20127;-83
2023/09/26 01:00:55;;;;;;;11.32;8.95;;;14.10;99.90;;;;;;5062647;28;20041;-83
2023/09/26 01:03:21;;;;;;;11.65;9.50;;;14.10;99.90;;;;;;5069980;28;20040;-84
2023/09/26 01:05:47;;;;;;;14.00;9.90;;;14.00;99.90;;;;;;5041817;28;20343;-83
2023/09/26 01:08:13;;;;;;;12.82;10.02;;;13.90;99.90;;;;;;5053288;28;20178;-83
2023/09/26 01:10:39;;;;;;;13.05;10.55;;;13.90;99.90;;;;;;5009677;28;20036;-82
2023/09/26 01:13:05;;;;;;;13.43;9.73;;;13.80;99.90;;;;;;5020248;28;20055;-83
2023/09/26 01:15:33;;;;;;;11.80;10.07;;;13.70;99.90;;;;;;5043963;28;20049;-83
2023/09/26 01:17:59;;;;;;;14.30;10.48;;;14.10;99.90;;;;;;5021080;28;20707;-83
2023/09/26 01:20:24;;;;;;;11.95;10.40;;;13.60;99.90;;;;;;5020052;28;20032;-83
2023/09/26 01:22:52;;;;;;;12.88;10.27;;;13.40;99.90;;;;;;5036309;28;20041;-84
2023/09/26 01:25:18;;;;;;;15.73;10.40;;;13.20;99.90;;;;;;5044789;28;20048;-82
2023/09/26 01:27:44;;;;;;;13.15;10.52;;;13.30;99.90;;;;;;5019255;28;20049;-83
2023/09/26 01:30:11;;;;;;;13.27;10.40;;;13.20;99.90;;;;;;5022365;28;20052;-83
2023/09/26 01:32:37;;;;;;;13.05;10.52;;;;;;;;;;5050320;28;20044;-83
2023/09/26 01:35:04;;;;;;;11.18;9.75;;;13.10;99.90;;;;;;5068034;28;20824;-82
2023/09/26 01:37:29;;;;;;;12.57;10.27;;;13.00;99.90;;;;;;5057615;28;20460;-83
2023/09/26 01:39:56;;;;;;;12.45;11.15;;;;;;;;;;5023441;28;20040;-82
2023/09/26 01:42:22;;;;;;;13.02;11.20;;;12.90;99.90;;;;;;5040388;28;20126;-83
2023/09/26 01:44:47;;;;;;;13.20;10.95;;;12.80;99.90;;;;;;5073742;28;20606;-82
2023/09/26 01:47:39;;;;;;;14.30;10.82;;;12.70;99.90;;;;;;5057220;28;20068;-82
2023/09/26 01:50:05;;;;;;;12.82;11.02;;;12.70;99.90;;;;;;5027917;28;20044;-83
2023/09/26 01:52:32;;;;;;;11.88;9.52;;;12.60;99.90;;;;;;5023794;28;20032;-82
2023/09/26 01:54:58;;;;;;;15.60;10.95;;;12.60;99.90;;;;;;5017695;28;20037;-83
2023/09/26 01:57:23;;;;;;;15.38;10.45;;;12.80;99.90;;;;;;5056821;28;20036;-83
2023/09/26 01:59:49;;;;;;;11.32;10.13;;;12.50;99.90;;;;;;5024607;28;20101;-83
2023/09/26 02:02:15;;;;;;;13.95;11.77;;;12.50;99.90;;;;;;5057205;28;20816;-83
2023/09/26 02:04:40;;;;;;;13.23;10.73;;;12.50;99.90;;;;;;5033493;28;20328;-83
2023/09/26 02:07:06;;;;;;;14.20;10.98;;;12.70;99.90;;;;;;5022845;28;20039;-83
2023/09/26 02:09:32;;;;;;;18.23;12.35;;;12.20;99.90;;;;;;5050560;28;20047;-83
2023/09/26 02:11:57;;;;;;;12.05;10.88;;;12.20;99.90;;;;;;5041901;28;20044;-83
2023/09/26 02:14:23;;;;;;;15.07;12.10;;;;;;;;;;5021700;28;20042;-83
2023/09/26 02:16:49;;;;;;;13.07;11.15;;;12.00;99.90;;;;;;5048417;28;20037;-84
2023/09/26 02:19:15;;;;;;;14.20;11.50;;;12.10;99.90;;;;;;5059431;28;20032;-83
2023/09/26 02:21:40;;;;;;;13.07;11.20;;;12.00;99.90;;;;;;5054385;28;20041;-83
2023/09/26 02:24:06;;;;;;;14.07;11.65;;;12.00;99.90;;;;;;5059365;28;20041;-82
2023/09/26 02:26:32;;;;;;;15.55;10.82;;;;;;;;;;5058527;28;20040;-84
2023/09/26 02:28:59;;;;;;;13.55;11.32;;;12.00;99.90;;;;;;5045056;28;20493;-83
2023/09/26 02:31:25;;;;;;;14.02;12.52;;;12.30;99.90;;;;;;5057994;28;20109;-83
2023/09/26 02:33:50;;;;;;;13.57;11.10;;;11.90;99.90;;;;;;5024538;28;20976;-83
2023/09/26 02:36:16;;;;;;;15.25;12.07;;;11.90;99.90;;;;;;5058387;28;20042;-83
2023/09/26 02:38:42;;;;;;;14.65;13.02;;;11.80;99.90;;;;;;5014050;28;20044;-83
2023/09/26 02:41:08;;;;;;;16.92;13.02;;;;;;;;;;5024905;28;20119;-83
2023/09/26 02:43:34;;;;;;;16.75;11.50;;;11.70;99.90;;;;;;5054023;28;20040;-83
2023/09/26 02:45:59;;;;;;;13.20;11.82;;;11.70;99.90;;;;;;5058328;28;20055;-83
2023/09/26 02:48:25;;;;;;;16.42;12.80;;;11.70;99.90;;;;;;5055182;28;20048;-83
2023/09/26 02:50:50;;;;;;;15.57;13.30;;;11.90;99.90;;;;;;5052289;28;20086;-83
2023/09/26 02:53:16;;;;;;;16.50;12.32;;;11.60;99.90;;;;;;5051634;28;20048;-83
2023/09/26 02:55:42;;;;;;;15.93;13.15;;;11.60;99.90;;;;;;5047326;28;20045;-83
2023/09/26 02:58:08;;;;;;;13.60;11.90;;;11.50;99.90;;;;;;5020231;28;20044;-82
2023/09/26 03:00:34;;;;;;;16.02;12.27;;;11.40;99.90;;;;;;5053268;28;20124;-83
2023/09/26 03:03:00;;;;;;;16.63;12.38;;;11.50;99.90;;;;;;5019285;28;20032;-83
2023/09/26 03:05:26;;;;;;;15.40;12.35;;;11.50;99.90;;;;;;5044104;28;20043;-82
2023/09/26 03:07:52;;;;;;;13.60;12.20;;;11.40;99.90;;;;;;5018956;28;20044;-82
2023/09/26 03:10:18;;;;;;;13.75;12.30;;;11.50;99.90;;;;;;5047320;28;20402;-82
2023/09/26 03:12:48;;;;;;;15.68;12.27;;;11.40;99.90;;;;;;5072936;28;20711;-82
2023/09/26 03:15:14;;;;;;;15.95;12.90;;;11.40;99.90;;;;;;5014661;28;20397;-83
2023/09/26 03:17:40;;;;;;;16.35;13.35;;;11.40;99.90;;;;;;5070218;28;20151;-84
2023/09/26 03:20:08;;;;;;;14.68;12.38;;;11.40;99.90;;;;;;5056381;28;20117;-83
2023/09/26 03:22:34;;;;;;;16.48;14.75;;;11.40;99.90;;;;;;5022623;28;20060;-83
2023/09/26 03:25:00;;;;;;;16.08;13.98;;;11.80;99.90;;;;;;5029884;28;20051;-83
2023/09/26 03:27:26;;;;;;;16.70;14.52;;;11.40;99.90;;;;;;5020515;28;20719;-83
2023/09/26 03:29:51;;;;;;;17.30;12.73;;;12.30;99.90;;;;;;5013432;28;20095;-82
2023/09/26 03:32:17;;;;;;;16.75;13.57;;;11.90;99.90;;;;;;5052206;28;20049;-82
2023/09/26 03:34:43;;;;;;;15.02;13.38;;;11.90;99.90;;;;;;5071218;28;20051;-82
2023/09/26 03:37:12;;;;;;;16.17;13.75;;;11.30;99.90;;;;;;5054167;28;20869;-82
2023/09/26 03:39:37;;;;;;;15.25;13.27;;;10.80;99.90;;;;;;5020620;28;20045;-82
2023/09/26 03:42:03;;;;;;;17.95;13.45;;;11.50;99.90;;;;;;5050804;28;20040;-82
2023/09/26 03:44:29;;;;;;;15.75;13.55;;;11.20;99.90;;;;;;5053790;28;20041;-82
2023/09/26 03:46:54;;;;;;;15.38;13.82;;;11.20;99.90;;;;;;5056028;28;20050;-85
2023/09/26 03:49:20;;;;;;;14.40;12.90;;;11.20;99.90;;;;;;5056522;28;20525;-83
2023/09/26 03:51:46;;;;;;;17.58;14.30;;;11.20;99.90;;;;;;5022473;28;20095;-82
2023/09/26 03:54:12;;;;;;;15.65;14.05;;;11.50;99.90;;;;;;5056694;28;20533;-85
2023/09/26 03:56:37;;;;;;;16.83;13.98;;;11.10;99.90;;;;;;5043048;28;20049;-82
2023/09/26 03:59:03;;;;;;;16.65;13.35;;;11.50;99.90;;;;;;5022919;28;20147;-83
2023/09/26 04:01:29;;;;;;;15.25;13.73;;;11.00;99.90;;;;;;5022846;28;20041;-82
2023/09/26 04:03:54;;;;;;;19.25;14.52;;;11.00;99.90;;;;;;5055107;28;20124;-82
2023/09/26 04:06:20;;;;;;;15.73;14.18;;;10.90;99.90;;;;;;5029517;28;20098;-83
2023/09/26 04:08:46;;;;;;;17.17;15.25;;;12.00;99.90;;;;;;5022461;28;20127;-83
2023/09/26 04:11:13;;;;;;;15.77;14.18;;;10.80;99.90;;;;;;5053886;28;20132;-82
2023/09/26 04:13:39;;;;;;;17.92;14.00;;;12.00;99.90;;;;;;5047414;28;20044;-83
2023/09/26 04:16:05;;;;;;;17.80;14.63;;;10.80;99.90;;;;;;5038873;28;20766;-82
2023/09/26 04:18:31;;;;;;;18.77;14.48;;;10.80;99.90;;;;;;5038976;28;20648;-82
2023/09/26 04:21:02;;;;;;;18.60;14.95;;;10.80;99.90;;;;;;5042135;28;20044;-82
2023/09/26 04:23:27;;;;;;;17.50;14.77;;;12.00;99.90;;;;;;5022248;28;20474;-83
2023/09/26 04:25:53;;;;;;;20.48;16.05;;;10.70;99.90;;;;;;5022160;28;20106;-83
2023/09/26 04:28:19;;;;;;;16.63;14.93;;;10.70;99.90;;;;;;5037068;28;20045;-83
2023/09/26 04:30:45;;;;;;;20.63;16.02;;;10.60;99.90;;;;;;5019060;28;20109;-83
2023/09/26 04:33:11;;;;;;;18.77;16.83;;;8.00;99.90;;;;;;5014489;28;20072;-83
2023/09/26 04:35:39;;;;;;;20.50;16.42;;;11.00;99.90;;;;;;5013559;28;20044;-84
2023/09/26 04:38:05;;;;;;;20.83;16.05;;;11.80;99.90;;;;;;5047382;28;20048;-83
2023/09/26 04:40:31;;;;;;;19.52;15.65;;;10.60;99.90;;;;;;5018847;28;20036;-82
2023/09/26 04:43:02;;;;;;;19.63;15.80;;;10.50;99.90;;;;;;5021482;28;20045;-82
2023/09/26 04:45:33;;;;;;;17.58;14.52;;;10.50;99.90;;;;;;5021319;28;20607;-82
2023/09/26 04:48:00;;;;;;;17.23;15.15;;;10.50;99.90;;;;;;5015925;28;20048;-83
2023/09/26 04:50:27;;;;;;;21.25;17.00;;;10.50;99.90;;;;;;5021936;28;20059;-83
2023/09/26 04:52:54;;;;;;;20.10;16.23;;;10.60;99.90;;;;;;5038314;28;20512;-83
2023/09/26 04:55:20;;;;;;;17.95;15.52;;;10.50;99.90;;;;;;5037481;28;20051;-82
2023/09/26 04:57:46;;;;;;;17.05;14.88;;;10.60;99.90;;;;;;5021283;28;20053;-82
2023/09/26 05:00:17;;;;;;;23.30;15.65;;;11.50;99.90;;;;;;5054697;28;20041;-82
2023/09/26 05:02:43;;;;;;;17.83;15.82;;;10.50;99.90;;;;;;5039699;28;20051;-83
2023/09/26 05:05:10;;;;;;;18.15;15.70;;;10.40;99.90;;;;;;5022184;28;20536;-82
2023/09/26 05:07:36;;;;;;;18.58;16.20;;;10.70;99.90;;;;;;5063835;28;20129;-82
2023/09/26 05:10:03;;;;;;;23.50;16.80;;;10.60;99.90;;;;;;5025627;28;20588;-82
2023/09/26 05:12:29;;;;;;;18.52;16.58;;;10.50;99.90;;;;;;5075943;28;20040;-82
2023/09/26 05:14:55;;;;;;;19.15;15.60;;;11.00;99.90;;;;;;5035737;28;20044;-83
2023/09/26 05:17:24;;;;;;;19.45;16.33;;;10.50;99.90;;;;;;5025690;28;20106;-82
2023/09/26 05:19:51;;;;;;;20.02;15.57;;;10.50;99.90;;;;;;5059617;28;20097;-83
2023/09/26 05:22:17;;;;;;;19.65;17.35;;;13.40;99.90;;;;;;5058887;28;21066;-83
2023/09/26 05:24:43;;;;;;;18.50;15.52;;;10.50;99.90;;;;;;5013140;28;20824;-82
2023/09/26 05:27:09;;;;;;;20.30;16.85;;;10.50;99.90;;;;;;5037826;28;20151;-82
2023/09/26 05:29:35;;;;;;;19.10;16.20;;;10.80;99.90;;;;;;5066508;28;20057;-82
2023/09/26 05:32:01;;;;;;;18.90;16.38;;;10.50;99.90;;;;;;5075271;28;20079;-85
2023/09/26 05:34:28;;;;;;;18.02;15.85;;;11.60;99.90;;;;;;5031625;28;20056;-82
2023/09/26 05:36:53;;;;;;;17.63;15.63;;;12.00;99.90;;;;;;5070283;28;20053;-83
2023/09/26 05:39:19;;;;;;;20.35;16.40;;;10.60;99.90;;;;;;5057129;28;20032;-82
2023/09/26 05:41:45;;;;;;;17.33;14.75;;;11.80;99.90;;;;;;5070252;28;20040;-85
2023/09/26 05:44:12;;;;;;;16.98;14.20;;;10.80;99.90;;;;;;5059205;28;20089;-82
2023/09/26 05:46:37;;;;;;;18.55;13.85;;;11.00;99.90;;;;;;5041241;28;20131;-82
2023/09/26 05:49:03;;;;;;;14.07;12.57;;;11.40;99.90;;;;;;5067883;28;20055;-82
2023/09/26 05:51:29;;;;;;;16.73;12.95;;;11.60;99.90;;;;;;5053588;28;20041;-82
2023/09/26 05:53:55;;;;;;;15.70;12.85;;;11.60;99.90;;;;;;5058826;28;20048;-82
2023/09/26 05:56:20;;;;;;;15.50;12.75;;;11.60;99.90;;;;;;5036902;28;20844;-82
2023/09/26 05:58:49;;;;;;;15.00;11.95;;;11.60;99.90;;;;;;5048305;28;20190;-83
2023/09/26 06:01:15;;;;;;;15.32;13.73;;;;;;;;;;5053736;28;20465;-82
2023/09/26 06:03:41;;;;;;;14.55;13.00;;;;;;;;;;5017834;28;20144;-82
2023/09/26 06:06:07;;;;;;;14.32;12.73;;;;;;;;;;5053882;28;20059;-84
2023/09/26 06:08:34;;;;;;;16.73;12.70;;;11.60;99.90;;;;;;5055964;28;20214;-82
2023/09/26 06:11:00;;;;;;;17.48;12.25;;;;;;;;;;5039612;28;20056;-82
2023/09/26 06:13:26;;;;;;;18.83;13.70;;;;;;;;;;5053765;28;20518;-82
2023/09/26 06:15:52;;;;;;;15.55;12.70;;;;;;;;;;5057318;28;20041;-82
2023/09/26 06:18:19;;;;;;;16.58;14.45;;;;;;;;;;5052480;28;20075;-82
2023/09/26 06:20:45;;;;;;;14.18;12.68;;;;;;;;;;5058233;28;20033;-82
2023/09/26 06:23:12;;;;;;;16.33;13.27;;;11.80;99.90;;;;;;5051168;28;20040;-82
2023/09/26 06:25:38;;;;;;;14.77;12.88;;;;;;;;;;5024377;28;20077;-82
2023/09/26 06:28:04;;;;;;;17.92;12.75;;;11.80;99.90;;;;;;5032073;28;20079;-83
2023/09/26 06:30:30;;;;;;;15.68;13.65;;;;;;;;;;5057037;28;20151;-81
2023/09/26 06:32:56;;;;;;;14.93;12.50;;;;;;;;;;5013432;28;20109;-81
2023/09/26 06:35:22;;;;;;;15.50;13.57;;;;;;;;;;5010615;28;20102;-81
2023/09/26 06:37:48;;;;;;;15.00;12.13;;;;;;;;;;5062986;28;20039;-83
2023/09/26 06:40:15;;;;;;;15.98;12.60;;;;;;;;;;5048175;28;20827;-83
2023/09/26 06:42:41;;;;;;;14.88;12.68;;;;;;;;;;5047813;28;20044;-82
2023/09/26 06:45:08;;;;;;;15.45;12.50;;;12.30;99.90;;;;;;5021401;28;20033;-82
2023/09/26 06:47:34;;;;;;;15.10;13.05;;;;;;;;;;5053060;28;20654;-82
2023/09/26 06:50:05;;;;;;;16.90;12.07;;;12.90;99.90;;;;;;5045100;28;20099;-83
2023/09/26 06:52:31;;;;;;;15.07;12.68;;;;;;;;;;5027790;28;20052;-82
2023/09/26 06:54:57;;;;;;;15.38;12.10;;;;;;;;;;5045305;28;20076;-82
2023/09/26 06:57:26;;;;;;;14.75;12.70;;;;;;;;;;5046847;28;20040;-82
2023/09/26 06:59:52;;;;;;;15.80;12.50;;;;;;;;;;5062718;28;20128;-81
2023/09/26 07:02:19;;;;;;;14.20;11.25;;;13.00;99.90;;;;;;5014049;28;20048;-82
2023/09/26 07:04:46;;;;;;;14.48;12.65;;;;;;;;;;5051284;28;20040;-82
2023/09/26 07:07:12;;;;;;;12.85;11.23;;;13.10;99.90;;;;;;5047541;28;20052;-82
2023/09/26 07:09:39;;;;;;;15.02;11.75;;;13.10;99.90;;;;;;5039962;28;20493;-84
2023/09/26 07:12:05;;;;;;;14.75;11.70;;;13.30;99.90;;;;;;5040881;28;20628;-84
2023/09/26 07:14:35;;;;;;;17.30;11.98;;;13.40;99.90;;;;;;5023836;28;20094;-83
2023/09/26 07:17:01;;;;;;;16.13;12.43;;;13.60;99.90;;;;;;5036063;28;20045;-84
2023/09/26 07:19:31;;;;;;;15.25;12.85;;;13.60;99.90;;;;;;5020641;28;20124;-83
2023/09/26 07:21:57;;;;;;;14.02;11.27;;;13.10;99.90;;;;;;5006349;28;20037;-84
2023/09/26 07:24:23;;;;;;;13.07;11.00;;;13.80;99.90;;;;;;5007403;28;20041;-83
2023/09/26 07:26:50;;;;;;;14.10;11.63;;;13.90;99.90;;;;;;5017399;28;20545;-83
2023/09/26 07:29:16;;;;;;;13.70;11.50;;;14.10;99.90;;;;;;5013539;28;20165;-83
2023/09/26 07:31:42;;;;;;;14.05;12.02;;;14.10;99.90;;;;;;5056336;28;20190;-84
2023/09/26 07:34:08;;;;;;;12.80;10.77;;;14.20;99.90;;;;;;5052678;28;20564;-83
2023/09/26 07:36:34;;;;;;;11.57;10.38;;;14.30;99.90;;;;;;5030452;28;20879;-82
2023/09/26 07:39:00;;;;;;;13.05;11.48;;;14.40;99.90;;;;;;5055719;28;20044;-82
2023/09/26 07:41:25;;;;;;;13.43;11.05;;;14.50;99.90;;;;;;5028624;28;20579;-84
2023/09/26 07:43:51;;;;;;;15.95;11.95;;;14.60;99.90;;;;;;5053268;28;20147;-83
2023/09/26 07:46:17;;;;;;;13.90;10.93;;;14.70;99.90;;;;;;5016737;28;20041;-84
2023/09/26 07:48:43;;;;;;;14.50;11.95;;;14.90;99.90;;;;;;5057599;28;20052;-82
2023/09/26 07:51:09;;;;;;;12.57;10.57;;;15.00;99.90;;;;;;5056466;28;20094;-83
2023/09/26 07:53:35;;;;;;;13.15;10.35;;;;;;;;;;5055904;28;20045;-82
2023/09/26 07:56:02;;;;;;;13.65;11.13;;;15.30;99.90;;;;;;5044595;28;20044;-83
2023/09/26 07:58:28;;;;;;;12.68;10.43;;;15.40;99.90;;;;;;5011268;28;20083;-83
2023/09/26 08:00:54;;;;;;;13.60;10.82;;;15.40;99.90;;;;;;5022475;28;20508;-83
2023/09/26 08:03:21;;;;;;;11.85;10.57;;;15.60;99.90;;;;;;5053935;28;20478;-81
2023/09/26 08:05:46;;;;;;;10.93;9.77;;;15.70;99.90;;;;;;5048245;28;20049;-83
2023/09/26 08:08:12;;;;;;;15.40;11.43;;;15.80;99.90;;;;;;5054811;28;20052;-83
2023/09/26 08:10:39;;;;;;;10.80;9.70;;;15.90;99.90;;;;;;5009953;28;20816;-83
2023/09/26 08:13:08;;;;;;;11.00;9.48;;;16.00;99.90;;;;;;5058411;28;20090;-83
2023/09/26 08:15:37;;;;;;;13.00;10.45;;;16.10;99.90;;;;;;5010423;28;20037;-83
2023/09/26 08:18:03;;;;;;;13.02;9.75;;;16.20;99.90;;;;;;5060095;28;20071;-83
2023/09/26 08:20:29;;;;;;;10.38;9.18;;;16.30;99.90;;;;;;5051842;28;20422;-84
2023/09/26 08:22:55;;;;;;;10.93;9.55;;;16.50;99.90;;;;;;5055990;28;20693;-83
2023/09/26 08:25:21;;;;;;;12.35;9.63;;;16.60;99.90;;;;;;5014852;28;20048;-83
2023/09/26 08:27:47;;;;;;;15.45;10.48;;;16.70;99.90;;;;;;5019598;28;20495;-83
2023/09/26 08:30:13;;;;;;;9.73;8.43;;;16.80;99.90;;;;;;5009090;28;20060;-84
2023/09/26 08:32:40;;;;;;;11.00;9.68;;;17.00;99.90;;;;;;5054518;28;20056;-85
2023/09/26 08:35:08;;;;;;;12.77;8.90;;;17.10;99.90;;;;;;5054340;28;20090;-85
2023/09/26 08:37:35;;;;;;;9.35;8.30;;;17.20;99.90;;;;;;5041798;28;20044;-83
2023/09/26 08:40:03;;;;;;;12.95;9.13;;;17.30;99.90;;;;;;5055318;28;20048;-83
2023/09/26 08:42:30;;;;;;;11.43;8.70;;;17.40;99.90;;;;;;5033857;28;20513;-82
2023/09/26 08:44:57;;;;;;;10.85;8.65;;;19.10;99.90;;;;;;5049146;28;20044;-83
2023/09/26 08:47:24;;;;;;;10.30;7.90;;;18.10;99.90;;;;;;5035570;28;20033;-87
2023/09/26 08:49:54;;;;;;;9.15;8.07;;;18.20;99.90;;;;;;5049395;28;20101;-83
2023/09/26 08:52:26;;;;;;;9.00;8.05;;;18.20;99.90;;;;;;5054956;28;20116;-84
2023/09/26 08:54:52;;;;;;;10.10;8.05;;;18.40;99.90;;;;;;5012604;28;20045;-84
2023/09/26 08:57:22;;;;;;;9.95;7.78;;;18.50;99.90;;;;;;5055632;28;20521;-83
2023/09/26 08:59:48;;;;;;;11.57;8.32;;;18.60;99.90;;;;;;5054512;28;20032;-84
2023/09/26 09:02:14;;;;;;;11.18;7.95;;;18.60;99.90;;;;;;5018344;28;20044;-84
2023/09/26 09:04:44;;;;;;;13.77;8.20;;;18.60;99.90;;;;;;5036288;28;20102;-84
2023/09/26 09:07:11;;;;;;;11.13;7.55;;;18.70;99.90;;;;;;5045542;28;20044;-85
2023/09/26 09:09:57;;;;;;;9.20;7.45;;;18.80;99.90;;;;;;5040236;28;20115;-83
2023/09/26 09:12:23;;;;;;;9.43;7.57;;;19.10;99.90;;;;;;5032358;28;20049;-85
2023/09/26 09:14:49;;;;;;;10.30;7.88;;;22.00;99.90;;;;;;5088512;28;20074;-84
2023/09/26 09:17:14;;;;;;;8.02;7.22;;;19.40;99.90;;;;;;5055218;28;20045;-84
2023/09/26 09:19:45;;;;;;;12.05;7.22;;;19.70;99.90;;;;;;5035614;28;20102;-84
2023/09/26 09:22:20;;;;;;;9.13;7.28;;;19.80;99.90;;;;;;5055174;28;20044;-83
2023/09/26 09:24:54;;;;;;;8.38;6.53;;;20.20;99.90;;;;;;5047696;28;20044;-84
2023/09/26 09:27:29;;;;;;;9.90;6.60;;;20.60;99.90;;;;;;5054567;28;20041;-84
2023/09/26 09:30:12;;;;;;;8.45;5.88;;;21.00;99.90;;;;;;5077935;28;20044;-84
2023/09/26 09:32:42;;;;;;;7.88;6.00;;;21.30;99.90;;;;;;5083385;28;20542;-85
2023/09/26 09:35:13;;;;;;;10.38;6.60;;;21.40;99.90;;;;;;5054649;28;20048;-84
2023/09/26 09:37:45;;;;;;;9.98;6.40;;;21.30;99.90;;;;;;5038038;28;20076;-83
2023/09/26 09:40:23;;;;;;;8.15;5.57;;;21.30;99.90;;;;;;5040757;28;20071;-85
2023/09/26 09:42:52;;;;;;;8.32;5.78;;;21.20;99.90;;;;;;5041722;28;20838;-84
2023/09/26 09:45:18;;;;;;;11.45;6.15;;;21.20;99.90;;;;;;5068776;28;20808;-85
2023/09/26 09:47:45;;;;;;;7.07;5.60;;;21.40;99.90;;;;;;5064054;28;20118;-84
2023/09/26 09:50:15;;;;;;;9.10;5.55;;;21.70;99.90;;;;;;5057986;28;20126;-85
2023/09/26 09:52:47;;;;;;;7.30;5.57;;;22.10;99.90;;;;;;5045204;28;20049;-86
2023/09/26 09:55:20;;;;;;;6.10;5.07;;;19.20;99.90;;;;;;5052085;28;20120;-86
2023/09/26 09:57:50;;;;;;;8.98;5.45;;;22.30;99.90;;;;;;5036947;28;20036;-84
2023/09/26 10:00:19;;;;;;;7.00;4.80;;;22.40;99.90;;;;;;5040078;28;20040;-84
2023/09/26 10:02:46;;;;;;;8.02;4.95;;;22.10;99.90;;;;;;5057989;28;20048;-85
2023/09/26 10:05:14;;;;;;;5.90;5.07;;;22.20;99.90;;;;;;5021852;28;20454;-84
2023/09/26 10:07:44;;;;;;;5.88;5.28;;;22.10;99.90;;;;;;5052156;28;20045;-85
2023/09/26 10:10:11;;;;;;;8.00;5.30;;;22.20;99.90;;;;;;5032718;28;20040;-87
2023/09/26 10:12:41;;;;;;;7.40;4.93;;;25.30;99.90;;;;;;5060652;28;20036;-85
2023/09/26 10:15:11;;;;;;;7.70;5.50;;;22.60;99.90;;;;;;5051255;28;20040;-83
2023/09/26 10:17:39;;;;;;;7.25;5.03;;;22.80;99.90;;;;;;5059581;28;20135;-83
2023/09/26 10:20:10;;;;;;;9.23;5.85;;;23.00;99.10;;;;;;5060060;28;20044;-86
2023/09/26 10:22:42;;;;;;;10.20;5.60;;;23.00;98.40;;;;;;5058843;28;20046;-84
2023/09/26 10:25:10;;;;;;;7.05;5.20;;;23.00;97.70;;;;;;5036590;28;20037;-85
2023/09/26 10:27:38;;;;;;;8.20;5.07;;;22.70;97.40;;;;;;5019346;28;20792;-84
2023/09/26 10:30:06;;;;;;;6.85;5.70;;;22.50;97.90;;;;;;5067575;28;20040;-86
2023/09/26 10:32:38;;;;;;;8.27;5.00;;;22.30;98.30;;;;;;5066874;28;20056;-85
2023/09/26 10:35:12;;;;;;;;;;;22.20;98.10;;;;;;5057885;28;20032;-85
2023/09/26 10:37:38;;;;;;;6.75;6.03;;;22.10;98.80;;;;;;5071427;28;19951;-88
2023/09/26 10:40:05;;;;;;;7.38;6.38;;;22.00;98.70;;;;;;5057957;28;20509;-86
2023/09/26 10:42:30;;;;;;;9.05;6.18;;;21.90;99.90;;;;;;5045628;28;20178;-87
2023/09/26 10:44:56;;;;;;;7.70;6.20;;;21.90;98.80;;;;;;5047264;28;20048;-84
2023/09/26 10:47:23;;;;;;;13.38;7.15;;;24.90;99.80;;;;;;5075283;28;20040;-84
2023/09/26 10:49:49;;;;;;;6.97;6.05;;;21.80;99.20;;;;;;5055735;28;20047;-84
2023/09/26 10:52:16;;;;;;;7.47;5.55;;;21.70;99.10;;;;;;5038763;28;20123;-86
2023/09/26 10:54:42;;;;;;;9.15;5.90;;;21.50;99.90;;;;;;5025834;28;20082;-85
2023/09/26 10:57:20;;;;;;;6.95;5.65;;;21.50;98.80;;;;;;5059142;28;20044;-92
2023/09/26 10:59:47;;;;;;;6.38;5.60;;;21.40;98.30;;;;;;5065744;28;20098;-86
2023/09/26 11:02:13;;;;;;;10.88;5.85;;;21.30;98.50;;;;;;5023745;28;20888;-85
2023/09/26 11:04:39;;;;;;;8.65;5.88;;;21.20;98.70;;;;;;5012789;28;20045;-85
2023/09/26 11:07:06;;;;;;;9.25;6.22;;;21.20;99.30;;;;;;5060253;28;20044;-88
2023/09/26 11:09:40;;;;;;;8.32;5.85;;;21.30;99.90;;;;;;5041333;28;20135;-89
2023/09/26 11:12:06;;;;;;;11.77;5.97;;;20.50;99.10;;;;;;5034639;28;20148;-84
2023/09/26 11:14:32;;;;;;;7.45;6.55;;;21.30;99.30;;;;;;5057741;28;20127;-84
2023/09/26 11:16:58;;;;;;;11.25;6.30;;;21.40;99.10;;;;;;5071593;28;20151;-84
2023/09/26 11:19:27;;;;;;;6.45;5.32;;;21.30;99.20;;;;;;5042520;28;20036;-84
2023/09/26 11:21:57;;;;;;;6.68;5.53;;;21.30;99.70;;;;;;5031346;28;20040;-86
2023/09/26 11:24:30;;;;;;;7.82;5.78;;;21.30;99.90;;;;;;5048318;28;20068;-87
2023/09/26 11:26:59;;;;;;;7.65;5.70;;;21.50;99.80;;;;;;5049025;28;20037;-85
2023/09/26 11:29:25;;;;;;;8.63;5.68;;;21.40;99.70;;;;;;5043344;28;20075;-86
2023/09/26 11:31:52;;;;;;;10.20;6.28;;;21.40;99.90;;;;;;5066136;28;20053;-84
2023/09/26 11:34:19;;;;;;;8.55;6.28;;;21.40;99.50;;;;;;5040822;28;20801;-85
2023/09/26 11:36:47;;;;;;;5.30;4.72;;;21.40;99.50;;;;;;5015979;28;20080;-84
2023/09/26 11:39:16;;;;;;;7.70;5.13;;;21.40;99.90;;;;;;5020883;28;20048;-86
2023/09/26 11:42:00;;;;;;;7.05;5.07;;;21.50;99.60;;;;;;5070473;28;20627;-89
2023/09/26 11:44:26;;;;;;;5.53;4.28;;;21.50;99.80;;;;;;5040935;28;20036;-91
2023/09/26 11:46:52;;;;;;;6.75;4.90;;;;;;;;;;5020923;28;20051;-85
2023/09/26 11:49:18;;;;;;;5.68;4.32;;;21.60;99.20;;;;;;5063169;28;20103;-84
2023/09/26 11:51:47;;;;;;;6.95;5.03;;;21.50;99.40;;;;;;5071817;28;20567;-85
2023/09/26 11:54:13;;;;;;;6.15;4.22;;;21.50;99.20;;;;;;5059444;28;20153;-89
2023/09/26 11:56:44;;;;;;;8.20;6.22;;;21.50;99.30;;;;;;5025062;28;20040;-85
2023/09/26 11:59:10;;;;;;;8.38;5.32;;;21.60;99.60;;;;;;5058084;28;20036;-85
2023/09/26 12:01:36;;;;;;;8.02;5.50;;;21.50;99.50;;;;;;5057067;28;20036;-83
2023/09/26 12:04:05;;;;;;;9.95;5.43;;;21.50;99.50;;;;;;5062893;28;20040;-85
2023/09/26 12:06:32;;;;;;;9.40;5.20;;;21.50;99.50;;;;;;5020808;28;20170;-84
2023/09/26 12:08:58;;;;;;;6.28;4.55;;;21.50;99.50;;;;;;5049864;28;20048;-87
2023/09/26 12:11:24;;;;;;;5.97;4.47;;;21.50;99.80;;;;;;5024256;28;20048;-86
2023/09/26 12:13:50;;;;;;;6.68;4.00;;;21.20;99.90;;;;;;5066885;28;20073;-85
2023/09/26 12:16:15;;;;;;;7.95;4.60;;;21.30;99.90;;;;;;5070552;28;20080;-88
2023/09/26 12:18:41;;;;;;;6.28;3.85;;;21.40;99.90;;;;;;5058236;28;20592;-87
2023/09/26 12:21:07;;;;;;;5.05;3.67;;;21.40;99.90;;;;;;5074950;28;20567;-90
2023/09/26 12:23:33;;;;;;;6.35;3.75;;;21.40;99.80;;;;;;5017053;28;20043;-90
2023/09/26 12:25:59;;;;;;;5.85;3.42;;;21.40;99.60;;;;;;5044937;28;20127;-88
2023/09/26 12:28:25;;;;;;;7.90;3.80;;;21.40;99.60;;;;;;5049205;28;20556;-85
2023/09/26 12:30:52;;;;;;;6.78;3.63;;;21.50;99.70;;;;;;5046781;28;20095;-89
2023/09/26 12:33:18;;;;;;;6.13;3.67;;;21.50;99.90;;;;;;5051407;28;20057;-87
2023/09/26 12:35:44;;;;;;;4.75;3.40;;;21.40;99.60;;;;;;5036055;28;20049;-91
2023/09/26 12:38:10;;;;;;;7.57;4.03;;;21.40;99.90;;;;;;5044671;28;20124;-84
2023/09/26 12:40:37;;;;;;;7.25;3.80;;;21.40;99.20;;;;;;5051208;28;20045;-86
2023/09/26 12:43:04;;;;;;;4.13;3.13;;;21.40;99.50;;;;;;5062321;28;20041;-85